CheckWX is a tool to help pilots better visualize weather data.  It is not intended as a substitute for an official pre-flight weather briefing.

04:15:22 UTC

KMCW METAR
Mason City Municipal Airport
Mason City, Iowa, USA
Current

22 mins ago

KMCW 060353Z AUTO 34015G24KT 10SM CLR M01/M03 A3007 RMK AO2 PK WND 33026/0257 SLP192 T10111033 $
Observed
Dec-6 @ 03:53 UTC
Wind
  • 340° at 15 KTS
  • Gusting to 24 KTS
Visibility
10 SM
Flight Rules
VFR
Cloud Levels
  • Clear skies
Temperature
-1°C / 30°F
Dewpoint
-3°C / 27°F
Humidity
86%
Altimeter
30.07" Hg
Pressure
1018.32 hPa
Previous

1 hour ago

KMCW 060253Z AUTO 34019KT 10SM M01/M03 A3003 RMK AO2 SLP177 T10061028 53030 $
Observed
Dec-6 @ 02:53 UTC
Wind
  • 340° at 19 KTS
Visibility
10 SM
Temperature
-1°C / 30°F
Dewpoint
-3°C / 27°F
Humidity
86%
Altimeter
30.03" Hg
Pressure
1016.92 hPa
Previous

2 hours ago

KMCW 060153Z AUTO 33014KT 10SM CLR 00/M02 A3000 RMK AO2 SLP168 T00001022
Observed
Dec-6 @ 01:53 UTC
Wind
  • 330° at 14 KTS
Visibility
10 SM
Flight Rules
VFR
Cloud Levels
  • Clear skies
Temperature
C / 32°F
Dewpoint
-2°C / 28°F
Humidity
87%
Altimeter
30" Hg
Pressure
1015.92 hPa